Time;durP1;ratioP1;P1;durP2;ratioP2;P2;SDS_P1;SDS_P2;PMS_P1;PMS_P2;Temp;Humidity;BMP_temperature;BMP_pressure;BME280_temperature;BME280_humidity;BME280_pressure;Samples;Min_cycle;Max_cycle;Signal;HPM_P1;HPM_P2
2022/05/10 00:01:54;;;;;;;17.27;15.60;;;;;;;15.32;85.25;98705.28;4129862;28;20639;-86
2022/05/10 00:03:58;;;;;;;16.87;15.13;;;;;;;15.30;85.69;98704.59;4116834;28;21279;-86
2022/05/10 00:06:02;;;;;;;17.00;15.40;;;;;;;15.29;85.86;98702.91;4128885;28;20638;-86
2022/05/10 00:08:12;;;;;;;15.80;14.40;;;;;;;15.27;85.09;98695.13;4131734;28;20685;-86
2022/05/10 00:10:15;;;;;;;16.97;15.30;;;;;;;15.24;85.60;98698.00;4118892;28;20631;-86
2022/05/10 00:12:19;;;;;;;18.23;15.50;;;;;;;15.23;84.60;98698.97;4144911;28;20638;-86
2022/05/10 00:14:22;;;;;;;16.90;15.40;;;;;;;15.21;85.88;98698.22;4131501;28;20657;-86
2022/05/10 00:16:27;;;;;;;16.47;14.60;;;;;;;15.18;84.71;98700.28;4142024;28;20662;-86
2022/05/10 00:18:31;;;;;;;16.97;15.27;;;;;;;15.15;85.17;98703.97;4115617;28;20640;-86
2022/05/10 00:20:34;;;;;;;16.67;15.10;;;;;;;15.14;85.93;98690.94;4114587;28;20659;-86
2022/05/10 00:22:38;;;;;;;17.43;15.83;;;;;;;15.11;84.98;98697.25;4127269;28;21224;-86
2022/05/10 00:24:42;;;;;;;15.80;14.30;;;;;;;15.08;84.77;98699.28;4141255;28;20646;-86
2022/05/10 00:26:46;;;;;;;16.03;14.53;;;;;;;15.06;85.95;98695.09;4128152;28;20620;-86
2022/05/10 00:28:49;;;;;;;18.23;15.63;;;;;;;15.03;84.82;98692.69;4114459;28;20648;-86
2022/05/10 00:30:52;;;;;;;16.47;15.07;;;;;;;15.01;85.99;98692.00;4129536;28;20643;-86
2022/05/10 00:32:56;;;;;;;16.37;14.63;;;;;;;14.97;85.41;98688.75;4128033;28;20638;-86
2022/05/10 00:34:59;;;;;;;16.80;15.30;;;;;;;14.96;85.26;98702.00;4111357;28;20732;-86
2022/05/10 00:37:03;;;;;;;17.03;15.43;;;;;;;14.95;85.22;98695.91;4108889;28;20676;-86
2022/05/10 00:39:07;;;;;;;17.07;15.43;;;;;;;14.92;86.00;98704.03;4144190;28;20661;-86
2022/05/10 00:41:15;;;;;;;16.43;14.93;;;;;;;14.91;85.41;98691.84;4126138;28;21465;-86
2022/05/10 00:43:29;;;;;;;17.03;15.43;;;;;;;14.87;85.47;98695.66;4127526;28;20674;-86
2022/05/10 00:45:40;;;;;;;17.10;15.60;;;;;;;14.84;85.90;98695.03;4126282;28;20718;-86
2022/05/10 00:47:48;;;;;;;17.90;16.10;;;;;;;14.83;85.53;98694.22;4131505;28;20672;-86
2022/05/10 00:49:56;;;;;;;17.90;16.20;;;;;;;14.80;85.81;98699.69;4112777;28;20695;-86
2022/05/10 00:52:05;;;;;;;17.30;15.70;;;;;;;14.79;86.23;98692.78;4129124;28;20646;-86
2022/05/10 00:54:19;;;;;;;18.37;16.57;;;;;;;14.76;85.69;98685.13;4128396;28;20638;-86
2022/05/10 00:56:28;;;;;;;17.53;15.83;;;;;;;14.74;86.01;98696.69;4127492;28;20639;-86
2022/05/10 00:58:38;;;;;;;18.43;15.57;;;;;;;14.72;86.09;98686.31;4128585;28;20643;-86
2022/05/10 01:00:41;;;;;;;17.30;15.70;;;;;;;14.70;86.32;98693.47;4110187;28;20675;-86
2022/05/10 01:02:59;;;;;;;18.47;16.73;;;;;;;14.68;86.00;98686.66;4128012;28;20689;-86
2022/05/10 01:05:12;;;;;;;17.13;15.43;;;;;;;14.64;86.35;98683.44;4128497;28;20646;-86
2022/05/10 01:07:18;;;;;;;19.53;17.53;;;;;;;14.61;86.36;98683.66;4124399;28;21235;-86
2022/05/10 01:09:27;;;;;;;18.13;16.50;;;;;;;14.59;86.41;98678.66;4126796;28;20635;-86
2022/05/10 01:11:39;;;;;;;17.80;16.10;;;;;;;14.54;86.77;98676.34;4129234;28;21238;-86
2022/05/10 01:13:51;;;;;;;18.00;16.37;;;;;;;14.52;86.47;98678.25;4127184;28;20635;-86
2022/05/10 01:16:01;;;;;;;18.03;16.33;;;;;;;14.52;86.89;98678.25;4125330;28;20623;-87
2022/05/10 01:18:05;;;;;;;18.47;16.73;;;;;;;14.50;86.53;98674.91;4128490;28;20695;-86
2022/05/10 01:20:10;;;;;;;17.93;16.13;;;;;;;14.48;86.87;98676.81;4126535;28;20658;-86
2022/05/10 01:22:32;;;;;;;20.50;18.30;;;;;;;14.46;86.36;98672.63;4129953;28;20636;-85
2022/05/10 01:24:53;;;;;;;16.83;15.33;;;;;;;14.41;85.97;98670.34;4142625;28;20735;-86
2022/05/10 01:27:11;;;;;;;18.93;17.13;;;;;;;14.36;86.87;98669.03;4112000;28;20638;-86
2022/05/10 01:29:20;;;;;;;19.23;17.33;;;;;;;14.35;86.28;98669.97;4127655;28;21488;-86
2022/05/10 01:31:26;;;;;;;18.80;16.97;;;;;;;14.28;86.80;98669.59;4129819;28;20756;-86
2022/05/10 01:33:33;;;;;;;18.97;17.17;;;;;;;14.28;86.10;98671.34;4115395;28;21292;-86
2022/05/10 01:35:42;;;;;;;18.00;16.30;;;;;;;14.26;86.83;98668.03;4127606;28;20636;-86
2022/05/10 01:37:50;;;;;;;18.97;17.20;;;;;;;14.22;87.23;98659.53;4139467;28;20659;-86
2022/05/10 01:39:57;;;;;;;18.30;16.60;;;;;;;14.20;86.84;98655.34;4131824;28;20750;-86
2022/05/10 01:42:04;;;;;;;17.93;16.23;;;;;;;14.18;87.22;98657.25;4126942;28;20630;-86
2022/05/10 01:44:16;;;;;;;18.43;16.63;;;;;;;14.16;87.16;98659.13;4143641;28;20654;-86
2022/05/10 01:46:21;;;;;;;17.83;16.07;;;;;;;14.13;87.36;98649.72;4129430;28;20686;-86
2022/05/10 01:48:25;;;;;;;18.70;17.00;;;;;;;14.13;87.26;98652.34;4141013;28;21050;-86
2022/05/10 01:50:31;;;;;;;20.33;18.33;;;;;;;14.13;87.65;98647.09;4124975;28;21293;-86
2022/05/10 01:52:42;;;;;;;18.13;16.33;;;;;;;14.12;87.11;98647.22;4125974;28;21145;-86
2022/05/10 01:55:04;;;;;;;19.60;17.40;;;;;;;14.09;87.57;98642.19;4129415;28;20638;-86
2022/05/10 01:57:08;;;;;;;18.70;16.90;;;;;;;14.05;87.11;98640.72;4112394;28;21007;-86
2022/05/10 01:59:13;;;;;;;18.80;17.00;;;;;;;14.04;87.26;98639.00;4138615;28;20633;-86
2022/05/10 02:01:27;;;;;;;19.33;17.10;;;;;;;14.04;87.80;98636.38;4142358;28;21041;-86
2022/05/10 02:03:35;;;;;;;19.40;17.60;;;;;;;14.02;87.31;98640.09;4130732;28;20659;-87
2022/05/10 02:05:46;;;;;;;19.33;17.33;;;;;;;13.99;87.25;98646.41;4126899;28;20994;-86
2022/05/10 02:07:51;;;;;;;19.73;17.73;;;;;;;13.98;87.65;98641.25;4126968;28;20640;-86
2022/05/10 02:09:59;;;;;;;18.90;16.90;;;;;;;13.98;87.70;98646.50;4111455;28;20656;-86
2022/05/10 02:12:08;;;;;;;18.60;16.80;;;;;;;13.93;87.34;98641.59;4122651;28;20664;-86
2022/05/10 02:14:16;;;;;;;18.97;17.20;;;;;;;13.89;87.29;98636.69;4127120;28;21279;-86
2022/05/10 02:16:25;;;;;;;18.87;17.00;;;;;;;13.86;87.03;98645.63;4110388;28;20654;-86
2022/05/10 02:18:33;;;;;;;18.57;16.87;;;;;;;13.83;86.89;98637.97;4126515;28;21311;-86
2022/05/10 02:20:41;;;;;;;20.53;16.73;;;;;;;13.81;88.06;98637.25;4142331;28;21072;-86
2022/05/10 02:22:48;;;;;;;20.37;18.27;;;;;;;13.78;87.22;98636.63;4128697;28;20630;-86
2022/05/10 02:24:55;;;;;;;20.00;18.10;;;;;;;13.76;87.71;98636.75;4145240;28;20678;-86
2022/05/10 02:27:04;;;;;;;19.23;17.20;;;;;;;13.73;87.92;98634.34;4143778;28;20717;-86
2022/05/10 02:29:10;;;;;;;19.67;17.67;;;;;;;13.70;87.81;98634.56;4126336;28;20644;-86
2022/05/10 02:31:19;;;;;;;20.27;18.17;;;;;;;13.66;87.64;98638.34;4122939;28;20637;-86
2022/05/10 02:33:23;;;;;;;20.03;17.93;;;;;;;13.65;87.83;98634.06;4145256;28;20617;-86
2022/05/10 02:35:26;;;;;;;19.00;17.20;;;;;;;13.64;87.79;98638.59;4146347;28;20641;-86
2022/05/10 02:37:30;;;;;;;18.57;16.73;;;;;;;13.62;87.63;98635.22;4124313;28;20650;-86
2022/05/10 02:39:33;;;;;;;20.80;17.60;;;;;;;13.61;88.52;98636.19;4126986;28;20627;-87
2022/05/10 02:41:37;;;;;;;18.97;17.07;;;;;;;13.57;88.11;98632.94;4124318;28;20660;-86
2022/05/10 02:43:45;;;;;;;20.20;18.17;;;;;;;13.58;87.89;98641.66;4109717;28;20646;-86
2022/05/10 02:45:50;;;;;;;19.00;17.17;;;;;;;13.54;87.57;98632.31;4124490;28;21256;-86
2022/05/10 02:47:54;;;;;;;19.30;17.30;;;;;;;13.52;87.89;98626.34;4128748;28;20635;-86
2022/05/10 02:50:00;;;;;;;20.33;18.37;;;;;;;13.53;87.47;98631.50;4125579;28;20677;-86
2022/05/10 02:52:05;;;;;;;18.47;16.57;;;;;;;13.54;87.81;98629.69;4131162;28;20681;-86
2022/05/10 02:54:12;;;;;;;19.23;17.40;;;;;;;13.52;87.95;98628.97;4111264;28;20999;-86
2022/05/10 02:56:17;;;;;;;20.53;18.60;;;;;;;13.51;87.50;98632.53;4147162;28;20683;-86
2022/05/10 02:58:26;;;;;;;19.17;17.27;;;;;;;13.47;88.44;98629.31;4126146;28;21093;-86
2022/05/10 03:00:29;;;;;;;19.43;17.53;;;;;;;13.46;87.61;98630.25;4145397;28;20620;-86
2022/05/10 03:02:36;;;;;;;20.13;18.13;;;;;;;13.44;88.67;98639.16;4128934;28;20645;-86
2022/05/10 03:04:42;;;;;;;19.80;17.90;;;;;;;13.43;88.39;98629.63;4112911;28;20654;-86
2022/05/10 03:06:47;;;;;;;19.87;17.80;;;;;;;13.41;89.20;98634.97;4127202;28;21211;-86
2022/05/10 03:08:51;;;;;;;20.60;18.40;;;;;;;13.40;88.77;98624.63;4131860;28;20641;-86
2022/05/10 03:10:54;;;;;;;20.43;18.40;;;;;;;13.39;89.02;98623.75;4114614;28;21209;-87
2022/05/10 03:12:57;;;;;;;20.33;18.23;;;;;;;13.36;87.82;98623.97;4142445;28;21158;-86
2022/05/10 03:15:01;;;;;;;23.23;17.70;;;;;;;13.34;88.94;98619.81;4145273;28;20758;-86
2022/05/10 03:17:04;;;;;;;20.53;18.53;;;;;;;13.31;88.55;98620.03;4144916;28;20644;-87
2022/05/10 03:19:08;;;;;;;20.60;18.50;;;;;;;13.31;88.65;98617.41;4132661;28;20671;-86
2022/05/10 03:21:12;;;;;;;20.53;18.53;;;;;;;13.31;89.13;98623.47;4128357;28;20801;-86
2022/05/10 03:23:16;;;;;;;20.40;18.37;;;;;;;13.29;88.42;98624.50;4130317;28;20691;-86
2022/05/10 03:25:20;;;;;;;21.07;19.03;;;;;;;13.27;89.35;98616.75;4128786;28;21292;-86
2022/05/10 03:27:24;;;;;;;21.50;19.50;;;;;;;13.27;89.57;98618.56;4115718;28;20637;-86
2022/05/10 03:29:27;;;;;;;20.73;18.53;;;;;;;13.25;88.89;98621.28;4109026;28;20720;-86
2022/05/10 03:31:31;;;;;;;20.40;18.40;;;;;;;13.22;88.02;98618.88;4111303;28;20633;-86
2022/05/10 03:33:34;;;;;;;21.40;19.20;;;;;;;13.21;89.45;98626.84;4132013;28;20742;-87
2022/05/10 03:35:37;;;;;;;20.83;18.77;;;;;;;13.19;89.45;98618.25;4128251;28;20706;-86
2022/05/10 03:37:40;;;;;;;21.33;19.23;;;;;;;13.17;87.90;98617.53;4130916;28;20681;-86
2022/05/10 03:39:44;;;;;;;19.40;17.50;;;;;;;13.17;89.48;98628.03;4126857;28;21243;-86
2022/05/10 03:41:53;;;;;;;22.20;19.93;;;;;;;13.15;88.56;98624.66;4116381;28;20644;-86
2022/05/10 03:43:57;;;;;;;21.90;19.67;;;;;;;13.14;89.26;98623.00;4129956;28;21227;-87
2022/05/10 03:46:06;;;;;;;20.73;18.70;;;;;;;13.11;88.35;98620.59;4129722;28;20647;-87
2022/05/10 03:48:13;;;;;;;21.80;18.87;;;;;;;13.13;88.18;98618.69;4130672;28;20723;-87
2022/05/10 03:50:19;;;;;;;20.70;18.70;;;;;;;13.11;89.25;98620.59;4128531;28;20694;-86
2022/05/10 03:52:22;;;;;;;20.97;18.97;;;;;;;13.09;88.12;98625.06;4143868;28;20654;-86
2022/05/10 03:54:26;;;;;;;21.27;19.17;;;;;;;13.08;89.72;98620.81;4131478;28;20680;-86
2022/05/10 03:56:31;;;;;;;22.17;19.87;;;;;;;13.11;88.26;98620.59;4126471;28;20643;-87
2022/05/10 03:58:34;;;;;;;23.33;20.70;;;;;;;13.08;89.42;98628.66;4114935;28;20773;-86
2022/05/10 04:00:38;;;;;;;22.13;19.83;;;;;;;13.09;89.04;98619.84;4148338;28;20667;-86
2022/05/10 04:02:41;;;;;;;23.10;20.80;;;;;;;13.13;89.83;98621.31;4131409;28;21537;-87
2022/05/10 04:04:45;;;;;;;22.23;19.93;;;;;;;13.12;89.96;98622.25;4132890;28;21152;-87
2022/05/10 04:06:48;;;;;;;21.50;19.40;;;;;;;13.11;89.87;98625.81;4131161;28;20642;-86
2022/05/10 04:08:54;;;;;;;22.27;19.97;;;;;;;13.11;88.61;98628.44;4147249;28;20632;-87
2022/05/10 04:11:02;;;;;;;22.20;19.97;;;;;;;13.10;88.79;98632.00;4141390;28;20655;-87
2022/05/10 04:13:12;;;;;;;21.63;19.57;;;;;;;13.08;89.93;98626.03;4148883;28;20628;-86
2022/05/10 04:15:17;;;;;;;21.10;19.00;;;;;;;13.09;88.84;98630.31;4129572;28;21421;-86
2022/05/10 04:17:21;;;;;;;21.63;19.43;;;;;;;13.12;88.78;98624.03;4111953;28;20649;-86
2022/05/10 04:19:24;;;;;;;23.40;19.53;;;;;;;13.12;88.91;98630.09;4127606;28;20661;-86
2022/05/10 04:21:28;;;;;;;24.10;19.83;;;;;;;13.10;89.92;98625.94;4148009;28;20649;-86
2022/05/10 04:23:33;;;;;;;22.00;19.73;;;;;;;13.13;88.74;98626.53;4142727;28;20639;-86
2022/05/10 04:25:45;;;;;;;20.90;18.87;;;;;;;13.15;89.60;98616.78;4142574;28;21128;-86
2022/05/10 04:27:48;;;;;;;22.33;19.30;;;;;;;13.16;88.78;98626.34;4133327;28;21215;-86
2022/05/10 04:29:53;;;;;;;23.20;20.87;;;;;;;13.18;88.66;98630.53;4126299;28;20682;-86
2022/05/10 04:31:56;;;;;;;22.70;20.50;;;;;;;13.20;89.19;98626.00;4130293;28;20683;-86
2022/05/10 04:33:59;;;;;;;21.50;19.20;;;;;;;13.24;89.28;98624.88;4144223;28;20640;-86
2022/05/10 04:36:03;;;;;;;20.83;18.83;;;;;;;13.23;89.37;98624.97;4145629;28;21256;-86
2022/05/10 04:38:08;;;;;;;20.97;18.43;;;;;;;13.24;88.41;98621.38;4143094;28;20662;-86
2022/05/10 04:42:33;;;;;;;22.13;20.03;;;;;;;13.36;89.35;98628.38;4128076;28;20686;-86
2022/05/10 04:44:36;;;;;;;22.30;20.10;;;;;;;13.42;89.57;98628.78;4128474;28;22369;-86
2022/05/10 04:46:43;;;;;;;22.20;19.80;;;;;;;13.48;88.49;98623.09;4144874;28;21284;-86
2022/05/10 04:48:46;;;;;;;22.40;20.00;;;;;;;13.54;89.65;98627.91;4143300;28;20667;-86
2022/05/10 04:50:50;;;;;;;23.03;20.63;;;;;;;13.59;89.52;98628.44;4141102;28;21260;-86
2022/05/10 04:52:53;;;;;;;22.20;20.00;;;;;;;13.64;89.15;98621.06;4128946;28;20720;-86
2022/05/10 04:54:56;;;;;;;23.40;21.10;;;;;;;13.69;88.51;98627.63;4129551;28;20639;-86
2022/05/10 04:56:59;;;;;;;22.37;19.97;;;;;;;13.76;89.01;98628.88;4133624;28;20649;-86
2022/05/10 04:59:04;;;;;;;22.97;20.60;;;;;;;13.81;88.66;98631.16;4129672;28;20713;-86
2022/05/10 05:01:09;;;;;;;23.07;20.87;;;;;;;13.84;87.68;98638.81;4111625;28;20725;-86
2022/05/10 05:03:14;;;;;;;23.87;21.07;;;;;;;13.88;88.17;98638.47;4127526;28;20670;-86
2022/05/10 05:05:18;;;;;;;22.63;20.37;;;;;;;13.93;87.93;98631.09;4130403;28;20625;-87
2022/05/10 05:07:21;;;;;;;22.43;20.27;;;;;;;14.00;87.96;98631.50;4141232;28;20640;-86
2022/05/10 05:09:25;;;;;;;23.53;21.17;;;;;;;14.05;88.17;98632.88;4144293;28;20724;-86
2022/05/10 05:11:28;;;;;;;21.60;19.53;;;;;;;14.13;88.86;98631.38;4126756;28;20650;-87
2022/05/10 05:13:32;;;;;;;24.23;21.93;;;;;;;14.20;88.21;98631.72;4112453;28;21241;-87
2022/05/10 05:15:35;;;;;;;23.03;20.80;;;;;;;14.26;87.54;98636.53;4111350;28;20634;-87
2022/05/10 05:17:39;;;;;;;24.20;21.80;;;;;;;14.25;87.06;98640.09;4130810;28;20713;-87
2022/05/10 05:19:43;;;;;;;22.93;20.83;;;;;;;14.26;87.65;98636.53;4128696;28;21494;-86
2022/05/10 05:21:47;;;;;;;24.27;21.97;;;;;;;14.34;87.88;98640.28;4123915;28;21438;-87
2022/05/10 05:23:50;;;;;;;23.80;21.40;;;;;;;14.38;86.56;98641.69;4109696;28;20670;-86
2022/05/10 05:25:55;;;;;;;23.83;21.43;;;;;;;14.46;86.84;98638.50;4124245;28;20682;-88
2022/05/10 05:27:58;;;;;;;23.33;20.93;;;;;;;14.56;87.34;98642.94;4127229;28;20630;-87
2022/05/10 05:30:04;;;;;;;24.03;21.30;;;;;;;14.78;87.36;98649.09;4129240;28;20635;-87
2022/05/10 05:32:11;;;;;;;24.90;22.50;;;;;;;15.07;88.90;98645.06;4113987;28;21024;-87
2022/05/10 05:34:15;;;;;;;24.40;22.10;;;;;;;15.31;86.30;98649.28;4131232;28;20657;-86
2022/05/10 05:36:20;;;;;;;23.67;21.43;;;;;;;15.58;85.68;98647.09;4144648;28;20642;-87
2022/05/10 05:38:24;;;;;;;23.30;21.13;;;;;;;15.82;84.83;98656.50;4129175;28;21012;-86
2022/05/10 05:40:27;;;;;;;22.87;20.77;;;;;;;16.05;84.43;98650.22;4129570;28;20656;-87
2022/05/10 05:42:32;;;;;;;24.13;21.63;;;;;;;16.31;83.95;98656.84;4129138;28;20631;-87
2022/05/10 05:44:35;;;;;;;21.03;19.07;;;;;;;16.53;83.49;98649.69;4116450;28;20620;-87
2022/05/10 05:46:38;;;;;;;22.60;20.50;;;;;;;16.75;82.32;98655.66;4131388;28;20615;-88
2022/05/10 05:48:42;;;;;;;22.10;20.00;;;;;;;16.90;83.18;98650.88;4133561;28;20666;-88
2022/05/10 05:50:46;;;;;;;22.57;20.27;;;;;;;17.08;83.12;98655.47;4126442;28;20632;-88
2022/05/10 05:52:55;;;;;;;22.07;20.07;;;;;;;17.27;81.01;98663.47;4126973;28;21209;-89
2022/05/10 05:55:00;;;;;;;23.37;21.10;;;;;;;17.42;81.13;98656.88;4124578;28;20635;-93
2022/05/10 05:57:06;;;;;;;22.90;20.13;;;;;;;17.62;81.81;98660.31;4112451;28;20633;-88
2022/05/10 05:59:10;;;;;;;21.43;19.33;;;;;;;17.73;79.30;98662.81;4124324;28;20626;-89
2022/05/10 06:01:14;;;;;;;22.67;20.50;;;;;;;17.91;79.38;98658.56;4144074;28;20651;-89
2022/05/10 06:03:18;;;;;;;21.33;19.43;;;;;;;18.14;79.41;98666.13;4107917;28;21509;-86
2022/05/10 06:05:22;;;;;;;20.87;18.97;;;;;;;18.33;78.67;98667.94;4127615;28;20658;-86
2022/05/10 06:07:26;;;;;;;22.23;20.03;;;;;;;18.57;80.05;98663.94;4143430;28;20718;-86
2022/05/10 06:09:30;;;;;;;22.27;20.10;;;;;;;18.74;79.47;98666.69;4126529;28;20686;-86
2022/05/10 06:11:34;;;;;;;21.70;19.57;;;;;;;18.88;77.76;98665.44;4119098;28;20643;-89
2022/05/10 06:13:37;;;;;;;22.67;20.30;;;;;;;18.98;77.84;98664.44;4143960;28;20639;-89
2022/05/10 06:15:40;;;;;;;22.50;20.30;;;;;;;19.09;77.29;98669.59;4144302;28;20638;-85
2022/05/10 06:17:47;;;;;;;22.70;20.70;;;;;;;19.22;78.93;98670.13;4113205;28;20723;-85
2022/05/10 06:19:51;;;;;;;23.40;21.20;;;;;;;19.30;78.41;98671.03;4131443;28;20708;-86
2022/05/10 06:21:55;;;;;;;22.70;20.47;;;;;;;19.31;76.80;98670.06;4128018;28;21453;-86
2022/05/10 06:24:05;;;;;;;21.07;19.20;;;;;;;19.33;76.48;98667.28;4143288;28;21067;-86
2022/05/10 06:26:10;;;;;;;20.73;18.83;;;;;;;19.38;77.43;98669.38;4125413;28;20639;-86
2022/05/10 06:28:14;;;;;;;21.53;19.53;;;;;;;19.43;78.04;98668.94;4131973;28;21285;-85
2022/05/10 06:30:18;;;;;;;22.50;20.23;;;;;;;19.45;78.04;98666.97;4141309;28;20642;-85
2022/05/10 06:32:23;;;;;;;22.63;20.53;;;;;;;19.52;77.02;98668.88;4127126;28;20639;-85
2022/05/10 06:34:30;;;;;;;25.30;21.60;;;;;;;19.77;79.61;98676.16;4146442;28;20621;-85
2022/05/10 06:36:34;;;;;;;22.77;20.53;;;;;;;20.02;78.67;98671.00;4146444;28;20676;-85
2022/05/10 06:38:37;;;;;;;23.40;21.17;;;;;;;20.29;78.86;98667.50;4116924;28;20628;-85
2022/05/10 06:40:40;;;;;;;23.87;21.67;;;;;;;20.54;77.09;98665.75;4148166;28;20716;-85
2022/05/10 06:42:45;;;;;;;22.80;20.53;;;;;;;20.77;77.76;98669.63;4136622;28;20694;-85
2022/05/10 06:44:49;;;;;;;23.53;21.43;;;;;;;20.98;77.45;98668.31;4133064;28;20646;-85
2022/05/10 06:46:52;;;;;;;23.47;21.20;;;;;;;21.23;76.59;98664.84;4132444;28;20638;-85
2022/05/10 06:48:55;;;;;;;22.00;19.93;;;;;;;21.47;75.53;98665.84;4133867;28;20630;-86
2022/05/10 06:50:58;;;;;;;32.20;28.73;;;;;;;21.64;76.15;98658.78;4142777;28;20661;-86
2022/05/10 06:53:02;;;;;;;22.70;20.60;;;;;;;21.74;74.79;98663.00;4129195;28;20647;-86
2022/05/10 06:55:07;;;;;;;21.77;19.77;;;;;;;21.87;74.08;98658.03;4114865;28;20687;-86
2022/05/10 06:57:11;;;;;;;22.30;20.30;;;;;;;22.05;75.42;98662.25;4130499;28;20642;-86
2022/05/10 06:59:16;;;;;;;21.63;19.63;;;;;;;22.19;73.17;98660.81;4146288;28;20666;-86
2022/05/10 07:01:19;;;;;;;20.80;18.70;;;;;;;22.36;71.80;98661.53;4131881;28;21543;-86
2022/05/10 07:03:28;;;;;;;21.17;19.17;;;;;;;22.59;72.04;98665.22;4143208;28;20733;-86
2022/05/10 07:05:36;;;;;;;22.07;18.60;;;;;;;22.82;71.10;98659.09;4138441;28;20619;-87
2022/05/10 07:07:39;;;;;;;21.00;18.70;;;;;;;23.06;72.08;98663.59;4130135;28;20643;-85
2022/05/10 07:09:42;;;;;;;21.13;19.23;;;;;;;23.25;71.45;98664.88;4130993;28;20635;-86
2022/05/10 07:11:47;;;;;;;21.00;19.10;;;;;;;23.30;70.26;98667.88;4128846;28;20627;-86
2022/05/10 07:13:50;;;;;;;20.73;18.60;;;;;;;23.36;70.33;98677.00;4115681;28;20659;-86
2022/05/10 07:15:55;;;;;;;19.93;18.03;;;;;;;23.52;72.10;98661.81;4148250;28;21204;-87
2022/05/10 07:17:59;;;;;;;18.20;16.60;;;;;;;23.77;70.87;98668.78;4135231;28;20642;-87
2022/05/10 07:20:04;;;;;;;19.30;17.57;;;;;;;23.99;70.33;98668.00;4136069;28;20624;-87
2022/05/10 07:22:08;;;;;;;18.83;17.10;;;;;;;24.12;68.28;98662.97;4134723;28;20745;-85
2022/05/10 07:24:11;;;;;;;18.50;16.90;;;;;;;24.25;68.15;98667.53;4139049;28;20665;-85
2022/05/10 07:26:14;;;;;;;18.70;16.80;;;;;;;24.36;69.35;98669.84;4149954;28;20698;-84
2022/05/10 07:28:18;;;;;;;19.20;16.47;;;;;;;24.45;68.39;98666.13;4150444;28;20638;-85
2022/05/10 07:30:22;;;;;;;17.77;16.37;;;;;;;24.61;69.82;98667.84;4131386;28;20670;-84
2022/05/10 07:32:27;;;;;;;17.23;15.80;;;;;;;24.73;68.06;98667.22;4137282;28;20630;-85
2022/05/10 07:34:30;;;;;;;17.43;15.93;;;;;;;24.91;68.34;98670.44;4133543;28;20697;-84
2022/05/10 07:36:34;;;;;;;16.47;14.97;;;;;;;25.01;66.93;98671.06;4120649;28;20631;-87
2022/05/10 07:38:38;;;;;;;16.00;14.70;;;;;;;25.17;66.94;98667.22;4135964;28;21041;-87
2022/05/10 07:40:43;;;;;;;13.60;12.50;;;;;;;25.20;63.44;98671.38;4139552;28;20623;-87
2022/05/10 07:42:48;;;;;;;14.10;12.90;;;;;;;25.33;64.62;98672.41;4119488;28;20635;-85
2022/05/10 07:44:52;;;;;;;15.07;13.87;;;;;;;25.42;63.75;98668.63;4153472;28;21012;-85
2022/05/10 07:46:55;;;;;;;14.30;12.90;;;;;;;25.43;63.02;98667.63;4134478;28;20623;-84
2022/05/10 07:49:00;;;;;;;14.93;13.63;;;;;;;25.47;63.50;98673.41;4131759;28;20626;-85
2022/05/10 07:51:04;;;;;;;12.90;11.67;;;;;;;25.58;64.74;98676.47;4116341;28;20633;-85
2022/05/10 07:53:10;;;;;;;13.87;12.57;;;;;;;25.72;61.54;98673.00;4121610;28;20672;-85
2022/05/10 07:55:14;;;;;;;14.67;13.20;;;;;;;25.85;62.43;98676.69;4115316;28;20751;-85
2022/05/10 07:57:17;;;;;;;14.50;13.20;;;;;;;26.00;61.67;98676.69;4113110;28;20718;-86
2022/05/10 07:59:21;;;;;;;14.50;13.20;;;;;;;26.20;61.55;98673.25;4128730;28;20635;-85
2022/05/10 08:01:26;;;;;;;14.17;12.87;;;;;;;26.32;62.27;98666.41;4146830;28;20684;-85
2022/05/10 08:03:29;;;;;;;14.40;13.20;;;;;;;26.37;61.78;98655.97;4113204;28;20663;-85
2022/05/10 08:05:35;;;;;;;15.07;13.67;;;;;;;26.41;61.62;98667.97;4110355;28;20659;-85
2022/05/10 08:07:39;;;;;;;14.33;13.03;;;;;;;26.45;61.55;98662.03;4130389;28;20647;-86
2022/05/10 08:09:42;;;;;;;14.77;13.50;;;;;;;26.61;63.70;98662.63;4129258;28;20720;-85
2022/05/10 08:11:46;;;;;;;15.53;13.30;;;;;;;26.70;62.45;98655.28;4145654;28;21074;-85
2022/05/10 08:13:50;;;;;;;14.97;13.47;;;;;;;26.82;61.50;98659.09;4110564;28;20625;-85
2022/05/10 08:15:55;;;;;;;23.53;13.00;;;;;;;26.90;61.90;98654.50;4145820;28;20626;-86
2022/05/10 08:17:58;;;;;;;14.13;12.80;;;;;;;27.06;61.81;98662.25;4123994;28;20632;-85
2022/05/10 08:20:02;;;;;;;14.17;12.83;;;;;;;27.19;60.35;98663.19;4135472;28;20720;-85
2022/05/10 08:22:07;;;;;;;14.20;12.90;;;;;;;27.30;59.03;98662.63;4110887;28;20691;-85
2022/05/10 08:24:10;;;;;;;13.80;12.37;;;;;;;27.41;58.04;98661.28;4129438;28;21003;-86
2022/05/10 08:26:13;;;;;;;14.67;13.37;;;;;;;27.43;58.68;98656.56;4145267;28;20642;-86
2022/05/10 08:28:20;;;;;;;13.40;12.30;;;;;;;27.40;58.36;98655.09;4134079;28;21009;-85
2022/05/10 08:30:23;;;;;;;13.77;12.57;;;;;;;27.47;59.14;98655.97;4132252;28;20730;-85
2022/05/10 08:32:26;;;;;;;14.10;12.90;;;;;;;27.52;59.96;98649.00;4130698;28;20754;-85
2022/05/10 08:34:32;;;;;;;13.70;12.50;;;;;;;27.54;59.84;98657.72;4126899;28;20644;-85
2022/05/10 08:36:36;;;;;;;13.57;12.40;;;;;;;27.62;61.32;98659.41;4115098;28;20659;-85
2022/05/10 08:38:41;;;;;;;14.03;12.83;;;;;;;27.70;60.55;98645.84;4142344;28;20665;-85
2022/05/10 08:40:48;;;;;;;13.77;12.47;;;;;;;27.80;59.71;98651.66;4146080;28;20906;-85
2022/05/10 08:42:53;;;;;;;14.10;12.73;;;;;;;27.90;59.94;98652.94;4128066;28;20662;-87
2022/05/10 08:44:58;;;;;;;13.87;12.67;;;;;;;27.92;57.59;98644.69;4126787;28;20639;-84
2022/05/10 08:47:06;;;;;;;13.90;12.60;;;;;;;27.95;60.63;98653.19;4114160;28;20986;-84
2022/05/10 08:49:12;;;;;;;13.93;12.63;;;;;;;28.01;59.75;98647.84;4132225;28;20658;-84
2022/05/10 08:51:16;;;;;;;15.83;13.10;;;;;;;28.11;59.22;98644.81;4128241;28;21012;-84
2022/05/10 08:53:19;;;;;;;14.10;12.80;;;;;;;27.99;58.32;98642.88;4133496;28;20714;-84
2022/05/10 08:55:28;;;;;;;13.87;12.47;;;;;;;27.89;56.99;98648.63;4129708;28;20650;-84
2022/05/10 08:57:41;;;;;;;13.03;11.93;;;;;;;27.73;56.13;98646.25;4124328;28;20627;-84
2022/05/10 08:59:55;;;;;;;13.63;12.47;;;;;;;27.62;58.31;98644.13;4125460;28;21174;-84
2022/05/10 09:02:01;;;;;;;12.47;11.30;;;;;;;27.75;57.35;98638.84;4127315;28;20678;-84
2022/05/10 09:04:16;;;;;;;12.43;11.33;;;;;;;27.78;57.98;98638.44;4128059;28;20652;-84
2022/05/10 09:06:27;;;;;;;12.67;11.50;;;;;;;27.92;56.26;98640.19;4140222;28;21213;-84
2022/05/10 09:08:36;;;;;;;12.00;11.00;;;;;;;28.01;57.83;98638.97;4127186;28;21319;-84
2022/05/10 09:10:45;;;;;;;17.03;15.60;;;;;;;28.16;60.99;98635.16;4125833;28;20648;-84
2022/05/10 09:12:54;;;;;;;12.53;11.40;;;;;;;28.30;59.75;98634.16;4140529;28;20650;-84
2022/05/10 09:15:01;;;;;;;12.47;11.37;;;;;;;28.39;57.94;98632.13;4142910;28;20677;-84
2022/05/10 09:17:05;;;;;;;11.90;10.90;;;;;;;28.41;56.98;98630.88;4142906;28;22238;-84
2022/05/10 09:19:12;;;;;;;12.30;11.30;;;;;;;28.47;56.03;98631.94;4141323;28;21109;-84
2022/05/10 09:21:21;;;;;;;11.33;10.43;;;;;;;28.57;56.94;98635.88;4129082;28;20647;-84
2022/05/10 09:23:30;;;;;;;12.60;11.50;;;;;;;28.63;55.72;98632.38;4128017;28;20658;-83
2022/05/10 09:25:36;;;;;;;12.63;11.53;;;;;;;28.61;56.72;98631.72;4131983;28;20627;-84
2022/05/10 09:27:41;;;;;;;13.50;12.40;;;;;;;28.59;56.58;98628.44;4128699;28;20635;-84
2022/05/10 09:29:47;;;;;;;12.20;11.00;;;;;;;28.59;55.98;98623.06;4133146;28;21290;-84
2022/05/10 09:36:33;;;;;;;12.53;11.43;;;;;;;28.79;58.04;98618.56;4142358;28;20646;-84
2022/05/10 09:38:45;;;;;;;11.97;10.10;;;;;;;28.80;56.76;98622.91;4126938;28;20632;-84
2022/05/10 09:40:50;;;;;;;10.70;9.70;;;;;;;28.85;54.68;98613.19;4107053;28;20639;-84
2022/05/10 09:43:13;;;;;;;13.10;10.00;;;;;;;28.90;55.79;98617.94;4128292;28;21197;-84
2022/05/10 09:45:20;;;;;;;12.03;11.03;;;;;;;28.87;53.98;98612.97;4110365;28;20645;-84